weather.gov     
National Weather Service

Terminal Aerodrome Forecast
NWS Homepage
This page is being discontinued on March 12, 2014.
The same data is available at this site. Please update your bookmarks.
Thank you, and we apologize for the inconvenience.
Please send an email to SR-SRH.Webmaster@noaa.gov with any concerns.


Current Version
Previous Version:    01  02  03  04  05  06  07  08  09  10  11  12  13  14  15  16  17  18  19  20  21  22  23  24  25  
[Printable]
218
FTUS41 KPHI 231700
TAFACY
TAF
KACY 231731Z 2318/2418 21008KT P6SM BKN200
     FM232100 18006KT P6SM SCT050 BKN100
     FM240000 VRB03KT P6SM SCT025 OVC050
     FM240300 14008KT 5SM -RA BR SCT008 OVC020 WS020/17045KT
     FM240500 14012G20KT 2SM RA BR BKN004 OVC010 WS020/17060KT
     FM240700 17014G24KT 4SM -RA BR OVC005 WS020/20060KT
     FM241400 20014G24KT P6SM -SHRA SCT008 OVC025
     FM241700 20016G28KT P6SM SCT020 BKN050=


U.S. Dept. of Commerce
NOAA National Weather Service
1325 East West Highway
Silver Spring, MD 20910
E-mail: w-nws.webmaster@noaa.gov
Page last modified: May 16, 2007
NATIONAL WEATHER SERVICE: for Safety, for Work, for Fun - FOR LIFE